createdAt,value
2023-08-16T00:02:17.624Z,99708.02
2023-08-16T00:12:23.320Z,99706.25
2023-08-16T00:22:29.065Z,99707.45
2023-08-16T00:32:34.954Z,99717.11
2023-08-16T00:42:40.947Z,99716.90
2023-08-16T00:52:46.670Z,99721.91
2023-08-16T01:02:52.617Z,99720.69
2023-08-16T01:13:07.689Z,99724.66
2023-08-16T01:23:23.392Z,99720.30
2023-08-16T01:33:29.019Z,99713.47
2023-08-16T01:43:36.151Z,99706.69
2023-08-16T01:53:42.283Z,99694.67
2023-08-16T02:03:48.183Z,99682.81
2023-08-16T02:13:53.900Z,99677.09
2023-08-16T02:23:59.767Z,99671.71
2023-08-16T02:34:05.984Z,99674.39
2023-08-16T02:44:11.748Z,99672.83
2023-08-16T02:54:17.416Z,99677.91
2023-08-16T03:04:23.149Z,99682.87
2023-08-16T03:14:29.272Z,99687.23
2023-08-16T03:24:34.969Z,99693.32
2023-08-16T03:34:40.632Z,99699.05
2023-08-16T03:44:46.530Z,99705.61
2023-08-16T03:54:53.702Z,99712.98
2023-08-16T04:05:09.036Z,99716.55
2023-08-16T04:15:15.215Z,99726.36
2023-08-16T04:25:23.135Z,99731.48
2023-08-16T04:35:27.449Z,99730.37
2023-08-16T04:45:33.354Z,99734.12
2023-08-16T04:55:39.549Z,99731.59
2023-08-16T05:05:45.259Z,99716.34
2023-08-16T05:15:51.010Z,99715.33
2023-08-16T05:25:56.715Z,99720.04
2023-08-16T05:36:02.551Z,99723.73
2023-08-16T05:46:08.391Z,99727.21
2023-08-16T05:56:14.267Z,99733.27
2023-08-16T06:06:20.254Z,99738.22
2023-08-16T06:16:26.182Z,99743.67
2023-08-16T06:26:32.090Z,99740.30
2023-08-16T06:36:37.993Z,99736.14
2023-08-16T06:46:44.058Z,99738.08
2023-08-16T06:56:50.564Z,99734.50
2023-08-16T07:06:56.462Z,99736.12
2023-08-16T07:17:03.358Z,99736.48
2023-08-16T07:27:09.361Z,99741.02
2023-08-16T07:37:15.578Z,99742.46
2023-08-16T07:47:21.451Z,99738.60
2023-08-16T07:57:27.339Z,99742.11
2023-08-16T08:07:33.052Z,99736.80
2023-08-16T08:17:38.802Z,99724.91
2023-08-16T08:27:44.720Z,99714.89
2023-08-16T08:37:50.809Z,99706.98
2023-08-16T08:47:58.601Z,99710.26
2023-08-16T08:58:05.838Z,99717.19
2023-08-16T09:08:14.618Z,99723.88
2023-08-16T09:18:24.981Z,99724.64
2023-08-16T09:28:34.290Z,99728.79
2023-08-16T09:38:45.856Z,99725.83
2023-08-16T09:59:02.627Z,99734.05
2023-08-16T10:09:11.287Z,99734.17
2023-08-16T10:19:24.181Z,99731.96
2023-08-16T10:29:34.802Z,99727.41
2023-08-16T10:39:40.793Z,99731.08
2023-08-16T10:49:46.764Z,99725.17
2023-08-16T11:00:02.992Z,99717.53
2023-08-16T11:10:09.631Z,99716.04
2023-08-16T11:20:20.085Z,99722.36
2023-08-16T11:30:26.336Z,99729.52
2023-08-16T11:40:32.119Z,99725.52
2023-08-16T11:50:37.900Z,99718.00
2023-08-16T12:00:46.262Z,99710.36
2023-08-16T12:10:58.116Z,99701.54
2023-08-16T12:21:04.086Z,99698.97
2023-08-16T12:31:08.453Z,99694.64
2023-08-16T12:41:14.389Z,99686.74
2023-08-16T12:51:18.683Z,99689.31
2023-08-16T13:01:24.631Z,99680.47
2023-08-16T13:11:34.442Z,99669.11
2023-08-16T13:21:53.276Z,99664.77
2023-08-16T13:32:03.241Z,99660.50
2023-08-16T13:42:17.148Z,99660.55
2023-08-16T13:52:23.981Z,99660.03
2023-08-16T14:02:30.345Z,99653.83
2023-08-16T14:12:36.679Z,99646.60
2023-08-16T14:22:42.480Z,99641.98
2023-08-16T14:32:48.380Z,99641.27
2023-08-16T14:42:54.269Z,99636.46
2023-08-16T14:52:58.526Z,99636.95
2023-08-16T15:03:05.527Z,99639.04
2023-08-16T15:13:12.538Z,99632.64
2023-08-16T15:23:19.982Z,99630.10
2023-08-16T15:33:25.719Z,99626.31
2023-08-16T15:43:31.833Z,99620.70
2023-08-16T15:53:37.663Z,99619.73
2023-08-16T16:03:43.516Z,99610.37
2023-08-16T16:13:49.307Z,99603.72
2023-08-16T16:23:55.067Z,99608.40
2023-08-16T16:34:00.914Z,99620.11
2023-08-16T16:44:08.441Z,99620.77
2023-08-16T16:54:14.177Z,99627.89
2023-08-16T17:04:20.030Z,99625.13
2023-08-16T17:14:26.177Z,99630.39
2023-08-16T17:24:32.180Z,99630.20
2023-08-16T17:34:37.907Z,99630.84
2023-08-16T17:44:43.755Z,99634.13
2023-08-16T17:54:49.453Z,99648.27
2023-08-16T18:04:55.371Z,99665.61
2023-08-16T18:15:02.056Z,99679.17
2023-08-16T18:25:08.896Z,99699.13
2023-08-16T18:35:14.721Z,99709.08
2023-08-16T18:45:20.641Z,99713.94
2023-08-16T18:55:28.724Z,99716.71
2023-08-16T19:05:42.642Z,99718.96
2023-08-16T19:15:48.722Z,99729.37
2023-08-16T19:25:57.989Z,99736.09
2023-08-16T19:36:06.465Z,99734.42
2023-08-16T19:46:12.439Z,99748.91
2023-08-16T19:56:18.295Z,99751.48
2023-08-16T20:06:25.036Z,99743.44
2023-08-16T20:16:31.347Z,99740.39
2023-08-16T20:26:37.236Z,99741.02
2023-08-16T20:36:43.266Z,99741.40
2023-08-16T20:46:51.182Z,99748.41
2023-08-16T20:56:57.765Z,99747.67
2023-08-16T21:07:03.644Z,99744.05
2023-08-16T21:17:09.738Z,99735.88
2023-08-16T21:27:16.736Z,99735.58
2023-08-16T21:37:22.410Z,99736.84
2023-08-16T21:47:28.530Z,99730.36
2023-08-16T21:57:36.417Z,99731.52
2023-08-16T22:07:43.237Z,99729.64
2023-08-16T22:17:48.989Z,99720.72
2023-08-16T22:27:54.819Z,99718.06
2023-08-16T22:38:00.602Z,99711.05
2023-08-16T22:48:07.714Z,99706.80
2023-08-16T22:58:13.434Z,99711.18
2023-08-16T23:08:19.323Z,99713.41
2023-08-16T23:18:25.153Z,99722.42
2023-08-16T23:28:30.979Z,99721.13
2023-08-16T23:38:36.833Z,99722.51
2023-08-16T23:48:42.535Z,99720.30
2023-08-16T23:58:48.376Z,99712.41
